Time;durP1;ratioP1;P1;durP2;ratioP2;P2;SDS_P1;SDS_P2;PMS_P1;PMS_P2;Temp;Humidity;BMP_temperature;BMP_pressure;BME280_temperature;BME280_humidity;BME280_pressure;Samples;Min_cycle;Max_cycle;Signal;HPM_P1;HPM_P2
2023/10/17 00:03:05;;;;;;;8.80;1.23;;;;;;;8.56;100.00;94613.81;5015155;28;20033;-82
2023/10/17 00:05:31;;;;;;;6.30;1.65;;;;;;;8.44;100.00;94613.91;5014307;28;20040;-82
2023/10/17 00:07:58;;;;;;;11.60;1.52;;;;;;;8.56;100.00;94624.25;5015159;28;20519;-82
2023/10/17 00:13:23;;;;;;;7.60;1.25;;;;;;;8.26;100.00;94615.06;5015003;28;20032;-82
2023/10/17 00:15:49;;;;;;;6.95;1.30;;;;;;;8.63;100.00;94614.38;5015504;28;20457;-82
2023/10/17 00:18:18;;;;;;;4.25;1.30;;;;;;;8.73;100.00;94611.06;5014382;28;20049;-81
2023/10/17 00:23:32;;;;;;;9.32;1.00;;;;;;;8.38;100.00;94607.09;5015077;28;20060;-82
2023/10/17 00:26:02;;;;;;;6.40;1.40;;;;;;;8.03;100.00;94606.47;5014167;28;20038;-82
2023/10/17 00:28:53;;;;;;;4.13;1.13;;;;;;;8.31;100.00;94604.69;5014208;28;20451;-82
2023/10/17 00:34:16;;;;;;;3.05;1.50;;;;;;;8.19;100.00;94602.22;5013998;28;20442;-82
2023/10/17 00:36:48;;;;;;;4.82;1.10;;;;;;;8.46;100.00;94599.59;5014078;28;20455;-82
2023/10/17 00:39:17;;;;;;;4.93;1.42;;;;;;;8.65;100.00;94603.69;5013999;28;20061;-82
2023/10/17 00:44:30;;;;;;;9.05;1.30;;;;;;;8.31;100.00;94596.84;5014930;28;20041;-82
2023/10/17 00:47:22;;;;;;;7.65;1.42;;;;;;;8.02;100.00;94605.69;5014958;28;20418;-82
2023/10/17 00:49:52;;;;;;;4.85;1.48;;;;;;;8.54;100.00;94601.00;5014907;28;20022;-82
2023/10/17 00:52:24;;;;;;;5.20;1.67;;;;;;;8.82;100.00;94606.16;5013616;28;20415;-82
2023/10/17 00:54:51;;;;;;;6.25;1.70;;;;;;;8.49;100.00;94601.69;5013800;28;20076;-82
2023/10/17 01:00:45;;;;;;;7.30;1.52;;;;;;;9.01;100.00;94599.53;5017002;28;20088;-82
2023/10/17 01:03:10;;;;;;;1.83;0.98;;;;;;;9.19;100.00;94600.16;5016948;28;20044;-82
2023/10/17 01:06:45;;;;;;;7.53;1.55;;;;;;;8.77;100.00;94597.25;5017208;28;20386;-82
2023/10/17 01:08:50;;;;;;;3.42;1.27;;;;;;;8.70;100.00;94596.69;5015263;28;20476;-82
2023/10/17 01:11:38;;;;;;;2.35;1.02;;;;;;;8.66;100.00;94598.22;5017765;28;20033;-82
2023/10/17 01:14:04;;;;;;;2.80;1.35;;;;;;;8.77;100.00;94599.09;5017039;28;20499;-82
2023/10/17 01:16:34;;;;;;;3.28;0.95;;;;;;;9.24;100.00;94594.19;5016775;28;20128;-82
2023/10/17 01:19:37;;;;;;;6.03;1.13;;;;;;;9.56;100.00;94593.28;5000447;28;20124;-81
2023/10/17 01:22:03;;;;;;;7.33;1.33;;;;;;;9.45;100.00;94595.06;5032649;28;20037;-81
2023/10/17 01:24:29;;;;;;;3.08;1.30;;;;;;;8.83;100.00;94597.31;5017998;28;20030;-82
2023/10/17 01:26:55;;;;;;;4.28;1.10;;;;;;;9.33;100.00;94590.81;5016912;28;20087;-82
2023/10/17 01:32:05;;;;;;;6.18;1.13;;;;;;;9.64;100.00;94589.41;5016315;28;20069;-82
2023/10/17 01:34:31;;;;;;;3.70;1.20;;;;;;;9.62;100.00;94593.06;5017985;28;20351;-82
2023/10/17 01:36:57;;;;;;;3.50;1.17;;;;;;;9.41;100.00;94581.72;5016730;28;20049;-82
2023/10/17 01:39:25;;;;;;;4.70;1.25;;;;;;;9.66;100.00;94582.88;5017756;28;20393;-82
2023/10/17 01:44:35;;;;;;;10.18;1.42;;;;;;;9.78;100.00;94592.34;5017449;28;20060;-82
2023/10/17 01:47:00;;;;;;;3.10;0.85;;;;;;;9.48;100.00;94589.34;5016550;28;20041;-82
2023/10/17 01:49:27;;;;;;;6.00;1.35;;;;;;;9.62;100.00;94589.69;5018737;28;20026;-82
2023/10/17 01:51:53;;;;;;;3.25;1.33;;;;;;;9.60;100.00;94584.69;5018592;28;20382;-82
2023/10/17 01:54:37;;;;;;;7.05;1.90;;;;;;;9.78;100.00;94597.59;5018793;28;20037;-82
2023/10/17 01:57:07;;;;;;;3.83;1.25;;;;;;;9.87;100.00;94588.97;5017807;28;20033;-82
2023/10/17 01:59:36;;;;;;;2.85;0.98;;;;;;;10.01;100.00;94597.13;5018418;28;20140;-82
2023/10/17 02:02:23;;;;;;;3.53;1.10;;;;;;;10.12;100.00;94590.09;5017185;28;20035;-81
2023/10/17 02:05:12;;;;;;;5.30;2.30;;;;;;;9.70;100.00;94583.94;5016178;28;20085;-82
2023/10/17 02:07:38;;;;;;;2.08;1.13;;;;;;;9.43;100.00;94584.09;5018100;28;20033;-82
2023/10/17 02:10:07;;;;;;;7.28;0.90;;;;;;;9.80;100.00;94587.66;5018451;28;20029;-82
2023/10/17 02:12:33;;;;;;;4.60;1.17;;;;;;;9.96;100.00;94583.22;5018195;28;20064;-82
2023/10/17 02:15:00;;;;;;;4.20;0.90;;;;;;;9.31;100.00;94572.00;5018632;28;20033;-82
2023/10/17 02:17:44;;;;;;;4.55;1.30;;;;;;;9.89;100.00;94579.03;5018481;28;20430;-82
2023/10/17 02:23:08;;;;;;;5.07;0.90;;;;;;;9.21;100.00;94584.22;5018147;28;20037;-82
2023/10/17 02:25:35;;;;;;;4.82;0.90;;;;;;;9.62;100.00;94582.59;5016587;28;20038;-82
2023/10/17 02:28:01;;;;;;;4.03;0.75;;;;;;;9.06;100.00;94580.50;5017159;28;20359;-82
2023/10/17 02:30:26;;;;;;;4.53;1.20;;;;;;;9.15;100.00;94578.19;5018150;28;20034;-82
2023/10/17 02:32:53;;;;;;;2.88;1.00;;;;;;;9.76;100.00;94575.09;5017819;28;20092;-82
2023/10/17 02:36:08;;;;;;;3.45;0.98;;;;;;;9.65;100.00;94576.06;5018107;28;20040;-82
2023/10/17 02:38:33;;;;;;;2.75;0.75;;;;;;;9.88;100.00;94576.66;5017811;28;20025;-82
2023/10/17 02:40:59;;;;;;;3.47;0.80;;;;;;;10.00;100.00;94577.22;5017679;28;20494;-82
2023/10/17 02:43:24;;;;;;;5.32;1.10;;;;;;;10.03;100.00;94578.56;5018035;28;20057;-82
2023/10/17 02:46:08;;;;;;;3.53;1.10;;;;;;;9.12;100.00;94579.47;5016812;28;20465;-82
2023/10/17 02:51:37;;;;;;;3.95;1.00;;;;;;;8.68;100.00;94579.69;5017554;28;20036;-82
2023/10/17 02:54:21;;;;;;;4.00;0.80;;;;;;;9.04;100.00;94580.72;5017568;28;20029;-82
2023/10/17 02:56:46;;;;;;;3.03;0.80;;;;;;;9.51;100.00;94582.81;5017508;28;20453;-82
2023/10/17 02:59:13;;;;;;;1.73;1.00;;;;;;;9.74;100.00;94587.59;5017825;28;20037;-82
2023/10/17 03:04:44;;;;;;;1.95;0.90;;;;;;;10.14;100.00;94584.59;5017147;28;20041;-82
2023/10/17 03:07:11;;;;;;;2.92;0.82;;;;;;;10.13;100.00;94596.09;5017636;28;20038;-82
2023/10/17 03:09:39;;;;;;;1.77;0.90;;;;;;;10.01;100.00;94588.50;5017629;28;20427;-82
2023/10/17 03:14:40;;;;;;;4.35;0.70;;;;;;;10.21;100.00;94586.97;5015896;28;20034;-82
2023/10/17 03:20:12;;;;;;;5.30;0.88;;;;;;;10.02;100.00;94582.22;5015317;28;20040;-81
2023/10/17 03:22:38;;;;;;;3.50;0.95;;;;;;;10.18;100.00;94577.78;5017085;28;20092;-82
2023/10/17 03:27:48;;;;;;;2.05;0.95;;;;;;;10.24;100.00;94574.16;5017150;28;20116;-82
2023/10/17 03:30:20;;;;;;;5.40;1.05;;;;;;;10.38;100.00;94568.41;5016961;28;20025;-82
2023/10/17 03:33:05;;;;;;;4.10;0.95;;;;;;;10.30;100.00;94570.47;5015478;28;20042;-82
2023/10/17 03:38:36;;;;;;;2.72;1.13;;;;;;;10.38;100.00;94566.56;5016945;28;20370;-82
2023/10/17 03:41:03;;;;;;;4.25;0.77;;;;;;;10.34;100.00;94570.75;5016419;28;20037;-80
2023/10/17 03:43:37;;;;;;;3.88;0.90;;;;;;;10.29;100.00;94570.75;5015904;28;20034;-81
2023/10/17 03:46:06;;;;;;;3.72;1.63;;;;;;;10.24;100.00;94570.72;5015702;28;20030;-82
2023/10/17 03:48:36;;;;;;;4.82;0.98;;;;;;;10.34;100.00;94578.59;5015897;28;20034;-81
2023/10/17 04:02:12;;;;;;;2.60;0.80;;;;;;;9.50;100.00;94586.47;5016646;28;20109;-82
2023/10/17 04:04:49;;;;;;;4.28;1.33;;;;;;;9.89;100.00;94586.09;5016726;28;20427;-82
2023/10/17 04:07:15;;;;;;;2.30;1.08;;;;;;;9.47;100.00;94577.31;5015904;28;20354;-82
2023/10/17 04:15:45;;;;;;;3.13;1.17;;;;;;;9.86;100.00;94594.47;5016665;28;20100;-82
2023/10/17 04:18:14;;;;;;;8.13;1.30;;;;;;;9.52;100.00;94590.41;5015299;28;20037;-82
2023/10/17 04:20:43;;;;;;;6.95;1.13;;;;;;;9.01;100.00;94589.06;5016207;28;20069;-82
2023/10/17 04:23:21;;;;;;;4.60;0.98;;;;;;;9.27;100.00;94591.84;5015390;28;20064;-81
2023/10/17 04:25:50;;;;;;;2.28;0.90;;;;;;;9.62;100.00;94581.81;5016887;28;20358;-82
2023/10/17 04:28:16;;;;;;;2.78;1.10;;;;;;;9.73;100.00;94591.28;5015793;28;20120;-82
2023/10/17 04:30:48;;;;;;;2.97;1.20;;;;;;;10.03;100.00;94589.03;5018898;28;20034;-82
2023/10/17 04:33:14;;;;;;;3.42;0.93;;;;;;;9.67;100.00;94587.06;5020435;28;20057;-82
2023/10/17 04:35:55;;;;;;;3.35;1.00;;;;;;;9.76;100.00;94580.31;5020244;28;20025;-82
2023/10/17 04:38:27;;;;;;;4.13;0.80;;;;;;;10.04;100.00;94578.31;5002488;28;20432;-81
2023/10/17 04:44:18;;;;;;;4.65;1.05;;;;;;;10.14;100.00;94581.97;5000318;28;20034;-82
2023/10/17 04:46:29;;;;;;;3.95;0.90;;;;;;;10.25;100.00;94588.00;5002453;28;20037;-82
2023/10/17 04:49:04;;;;;;;2.90;1.10;;;;;;;10.15;100.00;94583.53;5000610;28;20352;-82
2023/10/17 04:51:31;;;;;;;1.42;1.00;;;;;;;10.22;100.00;94581.47;4999367;28;20449;-82
2023/10/17 04:54:05;;;;;;;2.78;0.90;;;;;;;10.17;100.00;94581.44;5000221;28;20420;-82
2023/10/17 04:56:52;;;;;;;5.07;1.15;;;;;;;10.23;100.00;94580.44;5007479;28;20558;-81
2023/10/17 04:59:27;;;;;;;2.40;1.02;;;;;;;10.17;100.00;94578.84;5017691;28;20072;-82
2023/10/17 06:16:51;;;;;;;2.83;1.10;;;;;;;10.64;100.00;94624.25;5018210;28;20037;-81
2023/10/17 06:19:21;;;;;;;4.32;1.17;;;;;;;10.73;100.00;94627.13;5018330;28;20041;-82
2023/10/17 06:33:17;;;;;;;3.22;0.80;;;;;;;10.80;100.00;94634.75;5017808;28;20521;-82
2023/10/17 06:35:52;;;;;;;2.53;1.02;;;;;;;10.84;100.00;94631.34;5016818;28;20033;-82
2023/10/17 06:38:17;;;;;;;2.03;1.20;;;;;;;10.94;100.00;94627.16;5018170;28;20044;-82
2023/10/17 06:40:51;;;;;;;2.83;1.27;;;;;;;11.07;100.00;94624.00;5017595;28;20026;-81
2023/10/17 06:43:28;;;;;;;1.70;0.98;;;;;;;11.19;100.00;94626.34;5016580;28;20083;-81
2023/10/17 06:45:57;;;;;;;2.38;1.10;;;;;;;11.25;100.00;94630.53;5016726;28;20099;-82
2023/10/17 06:53:47;;;;;;;2.53;1.27;;;;;;;9.78;100.00;94636.84;5018099;28;20343;-82
2023/10/17 06:56:13;;;;;;;2.47;1.40;;;;;;;9.80;100.00;94632.13;5016679;28;20328;-82
2023/10/17 06:58:39;;;;;;;2.05;1.30;;;;;;;9.78;100.00;94632.38;5016656;28;20033;-82
2023/10/17 07:01:05;;;;;;;1.67;1.00;;;;;;;9.87;100.00;94624.81;5017589;28;20360;-80
2023/10/17 07:03:37;;;;;;;4.30;1.48;;;;;;;10.22;100.00;94622.56;5017317;28;20419;-80
2023/10/17 07:06:12;;;;;;;3.33;1.20;;;;;;;10.78;100.00;94621.91;5017463;28;20110;-80
2023/10/17 07:08:38;;;;;;;3.78;1.23;;;;;;;11.25;100.00;94621.88;5017276;28;20026;-80
2023/10/17 07:11:18;;;;;;;3.50;1.40;;;;;;;11.08;100.00;94622.97;5015955;28;20026;-80
2023/10/17 07:16:34;;;;;;;3.47;1.20;;;;;;;10.72;100.00;94617.69;5016401;28;20029;-80
2023/10/17 07:19:46;;;;;;;3.47;1.20;;;;;;;11.43;100.00;94626.56;5016086;28;20450;-80
2023/10/17 07:22:15;;;;;;;4.03;1.20;;;;;;;11.66;100.00;94637.53;5015936;28;20045;-80
2023/10/17 07:25:02;;;;;;;3.90;1.23;;;;;;;11.48;100.00;94643.34;5020441;28;20108;-80
2023/10/17 07:27:46;;;;;;;2.25;1.20;;;;;;;11.74;100.00;94633.59;5017375;28;20057;-81
2023/10/17 07:30:24;;;;;;;3.13;0.93;;;;;;;11.62;100.00;94635.72;5017057;28;20025;-82
2023/10/17 07:32:54;;;;;;;5.47;1.30;;;;;;;12.00;100.00;94636.88;5015774;28;20445;-82
2023/10/17 07:35:23;;;;;;;3.67;1.15;;;;;;;12.11;100.00;94640.28;5017285;28;20034;-82
2023/10/17 07:37:55;;;;;;;5.35;1.50;;;;;;;11.57;100.00;94649.63;5016077;28;20033;-81
2023/10/17 07:43:07;;;;;;;2.45;1.15;;;;;;;11.78;100.00;94647.75;5015544;28;20459;-81
2023/10/17 07:45:39;;;;;;;4.32;1.15;;;;;;;12.07;100.00;94644.50;5017165;28;20065;-82
2023/10/17 07:50:51;;;;;;;2.80;1.42;;;;;;;12.20;100.00;94648.41;5015766;28;20033;-82
2023/10/17 07:53:20;;;;;;;4.55;1.27;;;;;;;12.38;100.00;94649.63;5016980;28;20069;-82
2023/10/17 07:55:52;;;;;;;2.05;1.13;;;;;;;12.51;100.00;94650.88;5015852;28;20038;-82
2023/10/17 07:58:41;;;;;;;3.83;1.38;;;;;;;12.79;100.00;94645.16;5015613;28;20035;-82
2023/10/17 08:01:33;;;;;;;1.73;1.00;;;;;;;12.58;100.00;94651.34;5016498;28;20030;-81
2023/10/17 08:04:13;;;;;;;5.57;1.10;;;;;;;12.86;100.00;94645.66;5016929;28;20037;-82
2023/10/17 08:09:56;;;;;;;10.90;1.35;;;;;;;12.55;100.00;94644.00;5019646;28;20040;-82
2023/10/17 08:12:22;;;;;;;3.92;1.23;;;;;;;12.59;100.00;94652.91;5020420;28;20034;-81
2023/10/17 08:15:17;;;;;;;6.35;1.10;;;;;;;12.58;100.00;94656.59;5020565;28;20032;-82
2023/10/17 08:17:43;;;;;;;3.55;1.30;;;;;;;12.65;100.00;94655.53;5020718;28;20038;-82
2023/10/17 08:20:45;;;;;;;4.30;1.55;;;;;;;12.61;100.00;94657.09;5020698;28;20141;-82
2023/10/17 08:23:13;;;;;;;10.95;1.00;;;;;;;12.69;100.00;94669.69;5019605;28;20050;-82
2023/10/17 08:25:54;;;;;;;3.15;1.08;;;;;;;13.04;100.00;94665.22;5020618;28;20042;-82
2023/10/17 08:31:44;;;;;;;6.47;1.20;;;;;;;12.79;100.00;94658.31;5019738;28;20501;-82
2023/10/17 08:34:12;;;;;;;6.65;1.85;;;;;;;12.98;100.00;94666.34;5020532;28;20036;-82
2023/10/17 08:42:00;;;;;;;8.00;1.50;;;;;;;12.84;100.00;94672.22;5019503;28;20036;-82
2023/10/17 08:44:31;;;;;;;5.32;1.60;;;;;;;13.17;100.00;94666.44;5020270;28;20040;-82
2023/10/17 08:46:57;;;;;;;5.65;1.52;;;;;;;12.90;100.00;94672.16;5019159;28;20038;-82
2023/10/17 08:49:22;;;;;;;4.68;1.30;;;;;;;13.14;100.00;94672.28;5018614;28;20470;-82
2023/10/17 08:51:51;;;;;;;5.38;1.40;;;;;;;12.79;100.00;94663.56;5018828;28;20347;-82
2023/10/17 08:54:35;;;;;;;5.43;1.38;;;;;;;13.00;100.00;94661.56;5020152;28;20470;-82
2023/10/17 08:57:19;;;;;;;3.60;1.80;;;;;;;13.17;100.00;94663.81;5020032;28;20057;-82
2023/10/17 09:02:48;;;;;;;5.07;1.40;;;;;;;13.31;100.00;94653.44;5018938;28;20030;-82
2023/10/17 09:05:32;;;;;;;5.13;1.50;;;;;;;13.20;100.00;94665.88;5018544;28;20029;-82
2023/10/17 09:08:02;;;;;;;6.15;1.52;;;;;;;13.02;100.00;94656.81;5018918;28;20037;-82
2023/10/17 09:10:39;;;;;;;7.78;1.17;;;;;;;12.89;100.00;94653.00;5018699;28;20026;-82
2023/10/17 09:19:12;;;;;;;4.25;1.02;;;;;;;13.01;100.00;94658.69;5018201;28;20439;-82
2023/10/17 09:21:42;;;;;;;4.80;1.20;;;;;;;13.13;100.00;94650.44;5019425;28;20029;-82
2023/10/17 09:24:32;;;;;;;11.45;1.85;;;;;;;13.65;100.00;94643.94;5018480;28;20034;-82
2023/10/17 09:26:58;;;;;;;5.30;1.50;;;;;;;13.95;100.00;94652.56;5018407;28;20497;-82
2023/10/17 09:32:08;;;;;;;7.32;1.48;;;;;;;14.69;100.00;94646.09;5018948;28;20057;-82
2023/10/17 09:34:34;;;;;;;8.50;1.60;;;;;;;14.69;100.00;94646.09;5019356;28;20411;-82
2023/10/17 09:37:37;;;;;;;5.57;1.38;;;;;;;14.88;100.00;94637.38;5019045;28;20030;-82
2023/10/17 09:40:11;;;;;;;2.92;1.13;;;;;;;14.97;100.00;94631.16;5019015;28;20175;-82
2023/10/17 09:42:37;;;;;;;6.15;1.20;;;;;;;14.96;100.00;94639.38;5017660;28;20451;-82
2023/10/17 09:45:06;;;;;;;5.03;1.58;;;;;;;14.93;100.00;94630.19;5019158;28;20034;-82
2023/10/17 09:47:34;;;;;;;4.70;1.40;;;;;;;14.36;100.00;94627.56;5019141;28;20064;-82
2023/10/17 09:50:03;;;;;;;4.57;1.30;;;;;;;15.00;100.00;94629.81;5017572;28;20033;-82
2023/10/17 09:52:30;;;;;;;3.17;1.20;;;;;;;15.28;100.00;94637.81;5018647;28;20032;-82
2023/10/17 09:54:58;;;;;;;4.93;1.27;;;;;;;15.34;100.00;94635.88;5019003;28;20038;-82
2023/10/17 09:57:25;;;;;;;9.10;1.42;;;;;;;15.57;100.00;94633.38;5018601;28;20116;-82
2023/10/17 10:00:25;;;;;;;3.67;1.40;;;;;;;16.58;100.00;94636.16;5017771;28;20029;-82
2023/10/17 10:02:52;;;;;;;3.40;1.00;;;;;;;16.54;100.00;94630.66;5018632;28;20169;-82
2023/10/17 10:05:30;;;;;;;3.60;1.30;;;;;;;16.33;100.00;94619.75;5017571;28;20038;-82
2023/10/17 10:10:49;;;;;;;3.35;1.10;;;;;;;14.80;100.00;94618.53;5017335;28;20076;-82
2023/10/17 10:13:15;;;;;;;3.10;0.90;;;;;;;14.61;100.00;94615.88;5017423;28;20121;-82
2023/10/17 10:15:50;;;;;;;5.43;1.13;;;;;;;14.70;100.00;94616.00;5017090;28;20117;-82
2023/10/17 10:18:16;;;;;;;5.18;1.65;;;;;;;15.07;100.00;94600.41;5018456;28;20037;-82
2023/10/17 10:20:57;;;;;;;2.67;1.50;;;;;;;15.27;100.00;94601.94;5018288;28;21980;-82
2023/10/17 10:23:50;;;;;;;6.07;1.17;;;;;;;16.21;100.00;94599.13;5018167;28;20423;-82
2023/10/17 10:26:34;;;;;;;4.50;1.60;;;;;;;16.84;100.00;94595.09;5018450;28;20042;-82
2023/10/17 10:29:22;;;;;;;4.35;1.55;;;;;;;16.08;100.00;94594.63;5017992;28;20034;-82
2023/10/17 10:32:06;;;;;;;3.22;1.20;;;;;;;16.38;100.00;94589.78;5016627;28;20550;-82
2023/10/17 10:34:36;;;;;;;5.10;1.23;;;;;;;15.97;100.00;94592.19;5018250;28;20069;-82
2023/10/17 10:37:03;;;;;;;5.68;1.00;;;;;;;16.35;100.00;94593.00;5016640;28;20041;-82
2023/10/17 10:39:30;;;;;;;2.85;1.40;;;;;;;16.18;99.36;94586.47;5017002;28;20034;-82
2023/10/17 10:42:07;;;;;;;7.63;2.38;;;;;;;15.83;100.00;94588.75;5017247;28;20037;-82
2023/10/17 10:44:42;;;;;;;3.42;1.55;;;;;;;15.16;100.00;94584.69;5018083;28;20049;-82
2023/10/17 10:47:08;;;;;;;7.57;2.97;;;;;;;14.59;100.00;94582.94;5016842;28;20119;-82
2023/10/17 10:49:34;;;;;;;5.90;2.35;;;;;;;14.54;100.00;94579.31;5017097;28;20038;-82
2023/10/17 10:51:59;;;;;;;7.13;2.67;;;;;;;14.71;100.00;94572.72;5017778;28;20439;-82
2023/10/17 10:54:45;;;;;;;8.05;2.88;;;;;;;14.94;100.00;94578.22;5017564;28;20084;-82
2023/10/17 10:57:12;;;;;;;9.32;2.80;;;;;;;14.52;100.00;94578.03;5017461;28;20402;-82
2023/10/17 10:59:49;;;;;;;5.38;2.85;;;;;;;15.06;100.00;94581.19;5017842;28;20065;-82
2023/10/17 11:02:14;;;;;;;9.50;3.17;;;;;;;15.06;100.00;94581.19;5016480;28;20084;-81
2023/10/17 11:04:59;;;;;;;14.57;2.92;;;;;;;15.46;100.00;94575.47;5017457;28;20022;-80
2023/10/17 11:07:24;;;;;;;8.43;3.20;;;;;;;15.47;100.00;94565.66;5016429;28;20505;-82
2023/10/17 11:13:13;;;;;;;7.45;2.75;;;;;;;14.87;100.00;94560.13;5015935;28;20079;-82
2023/10/17 11:15:44;;;;;;;6.68;2.83;;;;;;;16.02;100.00;94556.16;5017236;28;20489;-82
2023/10/17 11:18:11;;;;;;;9.75;3.47;;;;;;;15.30;100.00;94561.75;5016272;28;20092;-82
2023/10/17 11:20:55;;;;;;;9.02;3.58;;;;;;;14.76;100.00;94558.72;5016962;28;20037;-81
2023/10/17 11:23:40;;;;;;;12.10;3.30;;;;;;;14.40;100.00;94554.75;5016220;28;20399;-82
2023/10/17 11:26:25;;;;;;;10.05;3.60;;;;;;;14.89;100.00;94551.91;5017395;28;20355;-82
2023/10/17 11:28:54;;;;;;;7.82;3.70;;;;;;;14.26;100.00;94542.28;5015950;28;20025;-80
2023/10/17 11:31:41;;;;;;;8.98;3.22;;;;;;;14.54;100.00;94542.41;5016820;28;20407;-81
2023/10/17 11:34:12;;;;;;;5.40;3.30;;;;;;;14.41;100.00;94543.91;5017326;28;20036;-82
2023/10/17 11:39:42;;;;;;;10.50;3.50;;;;;;;14.10;100.00;94536.44;5015423;28;20359;-82
2023/10/17 11:42:07;;;;;;;5.22;2.65;;;;;;;14.46;100.00;94540.41;5017028;28;20036;-82
2023/10/17 11:44:39;;;;;;;11.95;3.88;;;;;;;14.05;100.00;94530.47;5016000;28;20030;-81
2023/10/17 11:47:20;;;;;;;7.97;3.90;;;;;;;14.76;100.00;94537.63;5016834;28;20057;-82
2023/10/17 11:49:49;;;;;;;7.60;3.38;;;;;;;14.04;100.00;94532.31;5016064;28;20399;-81
2023/10/17 11:52:15;;;;;;;8.27;3.50;;;;;;;14.19;100.00;94526.03;5015273;28;20022;-81
2023/10/17 11:54:54;;;;;;;8.18;3.60;;;;;;;14.94;100.00;94539.41;5015915;28;20029;-82
2023/10/17 11:57:23;;;;;;;8.57;3.33;;;;;;;15.38;100.00;94532.03;5016736;28;20026;-82
2023/10/17 11:59:56;;;;;;;7.05;2.95;;;;;;;15.95;100.00;94533.59;5015765;28;20026;-82
2023/10/17 12:02:21;;;;;;;11.75;3.80;;;;;;;15.44;100.00;94539.84;5015656;28;20112;-82
2023/10/17 12:04:47;;;;;;;7.18;2.80;;;;;;;16.03;100.00;94518.88;5016985;28;20049;-82
2023/10/17 12:07:12;;;;;;;6.78;2.65;;;;;;;16.08;100.00;94512.72;5015490;28;20355;-82
2023/10/17 12:09:38;;;;;;;6.15;2.75;;;;;;;16.17;100.00;94515.44;5016855;28;20117;-82
2023/10/17 12:12:03;;;;;;;9.68;2.80;;;;;;;15.83;100.00;94530.63;5016777;28;20025;-82
2023/10/17 12:14:29;;;;;;;6.18;2.70;;;;;;;15.92;100.00;94526.25;5016917;28;20034;-82
2023/10/17 12:16:54;;;;;;;10.00;2.95;;;;;;;16.27;100.00;94525.75;5016901;28;20034;-82
2023/10/17 12:19:40;;;;;;;6.03;3.00;;;;;;;16.61;97.99;94518.38;5015468;28;20350;-82
2023/10/17 12:22:05;;;;;;;6.75;3.05;;;;;;;15.17;100.00;94522.94;5016003;28;20033;-81
2023/10/17 12:24:36;;;;;;;5.53;2.53;;;;;;;15.41;100.00;94517.47;5016784;28;20340;-82
2023/10/17 12:27:02;;;;;;;6.75;2.88;;;;;;;14.39;100.00;94511.78;5016842;28;20045;-81
2023/10/17 12:29:29;;;;;;;14.43;3.40;;;;;;;14.23;100.00;94516.53;5015510;28;20030;-82
2023/10/17 12:32:08;;;;;;;10.10;2.92;;;;;;;14.03;100.00;94508.91;5014001;28;20025;-81
2023/10/17 12:34:36;;;;;;;8.52;3.28;;;;;;;14.10;100.00;94504.06;5014522;28;20036;-81
2023/10/17 12:37:03;;;;;;;9.57;2.90;;;;;;;14.62;100.00;94495.34;5016683;28;20110;-81
2023/10/17 12:39:31;;;;;;;6.45;2.95;;;;;;;14.52;100.00;94505.00;5015854;28;20354;-82
2023/10/17 12:41:57;;;;;;;8.23;2.85;;;;;;;14.61;100.00;94501.69;5015915;28;20110;-81
2023/10/17 12:44:22;;;;;;;8.32;3.17;;;;;;;14.61;100.00;94493.78;5015714;28;20113;-82
2023/10/17 12:47:06;;;;;;;8.95;3.58;;;;;;;14.47;100.00;94493.75;5016922;28;20041;-82
2023/10/17 12:49:32;;;;;;;9.25;2.83;;;;;;;14.72;100.00;94494.44;5031918;28;20117;-82
2023/10/17 12:52:00;;;;;;;9.10;2.92;;;;;;;14.83;100.00;94493.19;5034157;28;20528;-81
2023/10/17 12:54:44;;;;;;;9.30;2.67;;;;;;;15.09;100.00;94482.16;5019866;28;20038;-82
2023/10/17 12:57:10;;;;;;;11.48;3.13;;;;;;;15.18;100.00;94483.06;5018372;28;20036;-81
2023/10/17 12:59:35;;;;;;;7.53;3.20;;;;;;;15.66;100.00;94481.84;5019022;28;20030;-81
2023/10/17 13:02:01;;;;;;;7.45;2.17;;;;;;;16.24;100.00;94478.78;5018739;28;20045;-81
2023/10/17 13:04:27;;;;;;;4.72;2.45;;;;;;;16.58;100.00;94477.44;5019973;28;20466;-81
2023/10/17 13:06:53;;;;;;;7.18;3.22;;;;;;;16.28;100.00;94477.06;5019933;28;20136;-80
2023/10/17 13:09:18;;;;;;;5.22;2.88;;;;;;;15.60;100.00;94483.03;5019243;28;20109;-80
2023/10/17 13:11:44;;;;;;;6.68;2.83;;;;;;;15.92;100.00;94480.56;5018496;28;20177;-81
2023/10/17 13:16:53;;;;;;;4.85;2.60;;;;;;;15.31;100.00;94473.56;5019513;28;20033;-81
2023/10/17 13:22:47;;;;;;;8.82;3.22;;;;;;;15.06;100.00;94467.72;5014424;28;20106;-80
2023/10/17 13:25:35;;;;;;;6.05;2.67;;;;;;;15.27;100.00;94462.81;5016835;28;20108;-81
2023/10/17 13:28:01;;;;;;;5.40;3.10;;;;;;;16.13;100.00;94457.09;5018469;28;20339;-80
2023/10/17 13:30:45;;;;;;;9.73;3.35;;;;;;;14.86;100.00;94455.69;5017237;28;20033;-80
2023/10/17 13:33:29;;;;;;;9.48;3.10;;;;;;;15.25;100.00;94464.19;5012725;28;20121;-80
2023/10/17 13:35:54;;;;;;;7.28;3.45;;;;;;;14.70;100.00;94460.41;5018778;28;20313;-80
2023/10/17 13:38:20;;;;;;;7.93;3.00;;;;;;;15.81;100.00;94456.97;5018491;28;20067;-81
2023/10/17 13:40:45;;;;;;;3.63;2.50;;;;;;;16.40;100.00;94455.41;5018893;28;20044;-81
2023/10/17 13:43:13;;;;;;;4.75;2.50;;;;;;;15.91;100.00;94457.84;5017146;28;20033;-80
2023/10/17 13:45:41;;;;;;;10.43;2.50;;;;;;;16.77;100.00;94453.41;5017127;28;20431;-81
2023/10/17 13:48:25;;;;;;;5.88;2.63;;;;;;;16.66;100.00;94457.41;5019144;28;20087;-81
2023/10/17 13:50:50;;;;;;;10.30;2.88;;;;;;;15.94;100.00;94450.13;5018910;28;20041;-80
2023/10/17 13:53:16;;;;;;;11.27;2.55;;;;;;;15.07;100.00;94455.31;5018992;28;20454;-80
2023/10/17 13:55:42;;;;;;;7.20;3.08;;;;;;;14.61;100.00;94449.75;5018209;28;20030;-80
2023/10/17 13:58:08;;;;;;;6.63;2.90;;;;;;;14.83;100.00;94446.50;5018088;28;20366;-80
2023/10/17 14:03:36;;;;;;;6.75;2.47;;;;;;;15.29;100.00;94446.69;5017870;28;20351;-80
2023/10/17 14:06:06;;;;;;;7.38;2.70;;;;;;;14.66;100.00;94446.25;5018395;28;20024;-80
2023/10/17 14:08:36;;;;;;;10.50;2.60;;;;;;;14.69;100.00;94441.16;5006675;28;20121;-80
2023/10/17 14:11:06;;;;;;;8.68;2.90;;;;;;;15.73;100.00;94443.69;4998218;28;20066;-81
2023/10/17 14:13:31;;;;;;;6.57;2.60;;;;;;;15.95;100.00;94440.31;4998414;28;20038;-80
2023/10/17 14:15:57;;;;;;;8.82;2.42;;;;;;;16.12;100.00;94439.66;4998877;28;20324;-80
2023/10/17 14:18:29;;;;;;;8.77;2.60;;;;;;;16.13;100.00;94443.06;4998820;28;20038;-80
2023/10/17 14:21:36;;;;;;;8.38;2.65;;;;;;;15.06;100.00;94441.34;5013263;28;20061;-80
2023/10/17 14:24:27;;;;;;;11.48;3.00;;;;;;;15.48;100.00;94435.22;5004873;28;20041;-80
2023/10/17 14:26:53;;;;;;;11.02;3.30;;;;;;;14.57;100.00;94439.00;5015629;28;20041;-80
2023/10/17 14:29:21;;;;;;;9.00;3.40;;;;;;;14.03;100.00;94429.88;5014037;28;20029;-80
2023/10/17 14:31:46;;;;;;;8.27;3.35;;;;;;;13.94;100.00;94438.44;5030223;28;20038;-80
2023/10/17 14:34:32;;;;;;;7.55;3.33;;;;;;;14.10;100.00;94436.34;5013847;28;20336;-80
2023/10/17 14:37:17;;;;;;;9.45;3.13;;;;;;;14.28;100.00;94439.25;5015370;28;20033;-80
2023/10/17 14:39:43;;;;;;;8.63;2.90;;;;;;;14.48;100.00;94439.97;5013678;28;20037;-80
2023/10/17 14:42:27;;;;;;;5.38;3.05;;;;;;;14.50;100.00;94441.25;5013613;28;20034;-80
2023/10/17 14:45:31;;;;;;;8.07;3.35;;;;;;;14.90;100.00;94430.28;5013251;28;20119;-81
2023/10/17 14:48:14;;;;;;;11.55;2.60;;;;;;;15.29;100.00;94438.00;5015217;28;20033;-81
2023/10/17 14:50:40;;;;;;;;;;;;;;;14.72;100.00;94428.53;5015674;28;20485;-80
2023/10/17 14:53:05;;;;;;;12.50;3.00;;;;;;;14.59;100.00;94422.09;5030023;28;19914;-80
2023/10/17 14:55:31;;;;;;;10.38;2.72;;;;;;;15.14;100.00;94437.22;5014870;28;20076;-80
2023/10/17 14:57:57;;;;;;;5.78;3.00;;;;;;;14.74;100.00;94429.78;5015160;28;20034;-81
2023/10/17 15:00:22;;;;;;;9.95;3.03;;;;;;;14.41;100.00;94424.53;5013918;28;20033;-80
2023/10/17 15:02:49;;;;;;;8.77;3.67;;;;;;;13.82;100.00;94422.28;5029732;28;20069;-80
2023/10/17 15:05:15;;;;;;;6.05;3.55;;;;;;;13.84;100.00;94422.78;5013508;28;20030;-80
2023/10/17 15:07:41;;;;;;;5.80;3.03;;;;;;;13.87;100.00;94421.44;5013665;28;20122;-80
2023/10/17 15:10:12;;;;;;;11.80;3.58;;;;;;;13.95;100.00;94424.19;5013226;28;20109;-80
2023/10/17 15:15:24;;;;;;;12.50;4.22;;;;;;;13.97;100.00;94422.06;5013388;28;20092;-81
2023/10/17 15:20:52;;;;;;;7.00;3.90;;;;;;;14.33;100.00;94433.09;5015185;28;20096;-82